createdAt,value
2022-10-17T00:01:12.990Z,85.03
2022-10-17T00:03:41.613Z,84.96
2022-10-17T00:06:11.606Z,85.34
2022-10-17T00:08:41.396Z,84.95
2022-10-17T00:11:17.300Z,84.58
2022-10-17T00:13:45.434Z,84.67
2022-10-17T00:16:13.930Z,85.01
2022-10-17T00:18:42.072Z,84.87
2022-10-17T00:21:17.222Z,84.51
2022-10-17T00:23:45.256Z,85.00
2022-10-17T00:26:17.578Z,86.15
2022-10-17T00:28:47.733Z,85.84
2022-10-17T00:31:16.665Z,85.27
2022-10-17T00:33:44.851Z,84.81
2022-10-17T00:36:14.999Z,85.10
2022-10-17T00:38:45.042Z,86.32
2022-10-17T00:41:15.527Z,86.23
2022-10-17T00:44:00.608Z,86.36
2022-10-17T00:46:30.536Z,87.48
2022-10-17T00:49:01.392Z,86.49
2022-10-17T00:51:34.938Z,88.04
2022-10-17T00:54:05.247Z,86.59
2022-10-17T00:56:33.947Z,85.98
2022-10-17T01:01:32.334Z,84.81
2022-10-17T01:04:06.559Z,84.90
2022-10-17T01:06:34.897Z,84.96
2022-10-17T01:09:03.051Z,84.89
2022-10-17T01:11:39.141Z,84.71
2022-10-17T01:14:14.042Z,85.51
2022-10-17T01:16:49.123Z,85.53
2022-10-17T01:19:36.969Z,86.38
2022-10-17T01:22:09.127Z,86.36
2022-10-17T01:24:53.546Z,85.54
2022-10-17T01:27:49.958Z,85.44
2022-10-17T01:30:57.564Z,86.56
2022-10-17T01:33:41.316Z,87.48
2022-10-17T01:36:13.572Z,88.73
2022-10-17T01:38:47.641Z,87.24
2022-10-17T01:41:25.612Z,86.60
2022-10-17T01:44:00.208Z,86.37
2022-10-17T01:46:35.590Z,86.97
2022-10-17T01:49:05.757Z,87.43
2022-10-17T01:51:38.717Z,86.70
2022-10-17T01:54:13.205Z,86.30
2022-10-17T01:56:43.859Z,85.43
2022-10-17T01:59:15.749Z,85.70
2022-10-17T02:01:53.792Z,85.35
2022-10-17T02:04:23.570Z,86.29
2022-10-17T02:06:51.598Z,86.91
2022-10-17T02:09:21.737Z,87.27
2022-10-17T02:12:05.263Z,87.77
2022-10-17T02:14:44.112Z,87.53
2022-10-17T02:17:26.029Z,87.75
2022-10-17T02:20:03.947Z,87.94
2022-10-17T02:22:41.137Z,87.33
2022-10-17T02:25:15.602Z,87.29
2022-10-17T02:27:53.818Z,87.26
2022-10-17T02:30:31.106Z,87.89
2022-10-17T02:33:03.971Z,87.22
2022-10-17T02:35:35.967Z,87.22
2022-10-17T02:38:06.601Z,86.73
2022-10-17T02:40:35.890Z,86.13
2022-10-17T02:43:04.062Z,85.79
2022-10-17T02:45:36.186Z,86.08
2022-10-17T02:48:13.381Z,85.41
2022-10-17T02:50:50.657Z,84.18
2022-10-17T02:53:24.216Z,87.09
2022-10-17T02:56:00.053Z,86.95
2022-10-17T02:58:34.231Z,87.09
2022-10-17T03:01:03.375Z,87.16
2022-10-17T03:03:34.170Z,87.95
2022-10-17T03:06:03.177Z,86.13
2022-10-17T03:08:31.626Z,86.22
2022-10-17T03:11:01.825Z,87.61
2022-10-17T03:13:33.024Z,87.87
2022-10-17T03:16:03.352Z,87.38
2022-10-17T03:18:32.897Z,86.61
2022-10-17T03:21:02.545Z,86.52
2022-10-17T03:23:30.922Z,86.25
2022-10-17T03:25:59.552Z,86.39
2022-10-17T03:28:28.183Z,86.18
2022-10-17T03:30:56.549Z,85.99
2022-10-17T03:33:24.578Z,86.18
2022-10-17T03:35:54.120Z,86.45
2022-10-17T03:38:22.479Z,86.10
2022-10-17T03:40:56.254Z,86.47
2022-10-17T03:43:24.541Z,86.60
2022-10-17T03:45:52.842Z,86.05
2022-10-17T03:48:21.124Z,86.03
2022-10-17T03:50:49.434Z,85.95
2022-10-17T03:53:19.015Z,86.42
2022-10-17T03:55:47.266Z,86.82
2022-10-17T03:58:15.281Z,87.30
2022-10-17T04:00:43.634Z,88.10
2022-10-17T04:03:16.284Z,88.72
2022-10-17T04:05:45.902Z,88.31
2022-10-17T04:08:13.999Z,88.38
2022-10-17T04:11:08.082Z,87.27
2022-10-17T04:13:43.174Z,86.56
2022-10-17T04:16:14.110Z,86.71
2022-10-17T04:18:55.166Z,88.39
2022-10-17T04:21:26.577Z,87.67
2022-10-17T04:23:55.995Z,89.51
2022-10-17T04:26:41.387Z,89.87
2022-10-17T04:29:09.446Z,89.31
2022-10-17T04:31:37.440Z,89.74
2022-10-17T04:34:14.559Z,88.66
2022-10-17T04:36:42.616Z,88.42
2022-10-17T04:39:11.370Z,86.98
2022-10-17T04:41:41.740Z,86.75
2022-10-17T04:44:11.799Z,86.32
2022-10-17T04:46:43.906Z,86.40
2022-10-17T04:49:12.036Z,86.72
2022-10-17T04:51:44.198Z,86.80
2022-10-17T04:54:37.284Z,87.43
2022-10-17T04:57:12.023Z,86.99
2022-10-17T04:59:41.913Z,86.58
2022-10-17T05:02:19.658Z,86.37
2022-10-17T05:04:48.573Z,86.54
2022-10-17T05:07:17.716Z,87.45
2022-10-17T05:10:01.536Z,87.12
2022-10-17T05:12:32.173Z,89.64
2022-10-17T05:15:00.620Z,88.71
2022-10-17T05:17:29.962Z,88.29
2022-10-17T05:19:57.928Z,89.67
2022-10-17T05:22:26.491Z,89.42
2022-10-17T05:24:56.351Z,90.43
2022-10-17T05:27:25.395Z,90.38
2022-10-17T05:29:55.058Z,91.79
2022-10-17T05:32:29.269Z,91.99
2022-10-17T05:34:57.779Z,91.91
2022-10-17T05:37:27.158Z,92.39
2022-10-17T05:39:57.584Z,91.97
2022-10-17T05:42:26.856Z,92.01
2022-10-17T05:44:56.733Z,92.37
2022-10-17T05:47:24.855Z,92.13
2022-10-17T05:49:53.092Z,92.51
2022-10-17T05:52:38.961Z,92.14
2022-10-17T05:55:11.761Z,92.06
2022-10-17T05:57:40.867Z,91.92
2022-10-17T06:00:18.643Z,91.53
2022-10-17T06:02:54.470Z,91.15
2022-10-17T06:05:24.063Z,91.68
2022-10-17T06:07:55.085Z,90.89
2022-10-17T06:10:26.493Z,90.00
2022-10-17T06:12:56.757Z,89.01
2022-10-17T06:15:26.365Z,88.65
2022-10-17T06:18:01.885Z,88.74
2022-10-17T06:20:29.904Z,88.20
2022-10-17T06:22:58.350Z,87.87
2022-10-17T06:26:00.818Z,87.28
2022-10-17T06:28:30.432Z,85.96
2022-10-17T06:31:00.716Z,86.16
2022-10-17T06:33:29.435Z,87.30
2022-10-17T06:35:58.229Z,87.14
2022-10-17T06:38:27.457Z,87.24
2022-10-17T06:41:04.970Z,87.22
2022-10-17T06:43:33.459Z,87.07
2022-10-17T06:46:29.914Z,87.49
2022-10-17T06:49:10.947Z,85.71
2022-10-17T06:51:50.136Z,86.38
2022-10-17T06:54:21.685Z,85.61
2022-10-17T06:57:28.871Z,85.46
2022-10-17T07:00:23.482Z,84.29
2022-10-17T07:02:56.670Z,83.95
2022-10-17T07:05:25.009Z,83.02
2022-10-17T07:07:53.446Z,82.94
2022-10-17T07:10:21.585Z,82.00
2022-10-17T07:12:49.637Z,83.37
2022-10-17T07:15:19.074Z,83.41
2022-10-17T07:17:50.390Z,82.87
2022-10-17T07:20:21.175Z,82.59
2022-10-17T07:22:49.458Z,81.04
2022-10-17T07:25:17.517Z,81.57
2022-10-17T07:27:52.848Z,80.57
2022-10-17T07:30:25.130Z,81.07
2022-10-17T07:33:07.570Z,77.97
2022-10-17T07:35:40.818Z,77.99
2022-10-17T07:38:09.297Z,78.12
2022-10-17T07:40:37.715Z,73.42
2022-10-17T07:43:05.981Z,75.74
2022-10-17T07:45:34.240Z,72.43
2022-10-17T07:48:02.971Z,73.52
2022-10-17T07:50:33.592Z,74.30
2022-10-17T07:53:02.994Z,72.46
2022-10-17T07:55:31.248Z,73.01
2022-10-17T07:58:00.607Z,71.19
2022-10-17T08:00:28.898Z,69.63
2022-10-17T08:02:56.959Z,70.57
2022-10-17T08:05:24.934Z,68.86
2022-10-17T08:07:52.995Z,69.36
2022-10-17T08:10:27.780Z,68.71
2022-10-17T08:12:56.304Z,69.84
2022-10-17T08:15:27.965Z,68.10
2022-10-17T08:18:02.048Z,67.72
2022-10-17T08:20:30.117Z,66.42
2022-10-17T08:22:58.549Z,66.45
2022-10-17T08:25:28.325Z,69.39
2022-10-17T08:27:56.379Z,68.42
2022-10-17T08:30:24.915Z,65.39
2022-10-17T08:32:53.065Z,65.53
2022-10-17T08:35:22.196Z,66.34
2022-10-17T08:37:50.239Z,64.47
2022-10-17T08:40:23.007Z,62.58
2022-10-17T08:43:05.426Z,63.22
2022-10-17T08:45:37.287Z,65.20
2022-10-17T08:48:09.895Z,62.87
2022-10-17T08:50:42.897Z,63.12
2022-10-17T08:53:19.010Z,64.45
2022-10-17T08:55:48.947Z,60.99
2022-10-17T08:58:22.341Z,63.31
2022-10-17T09:01:00.346Z,60.07
2022-10-17T09:03:39.723Z,61.38
2022-10-17T09:06:19.105Z,58.15
2022-10-17T09:08:56.888Z,59.63
2022-10-17T09:11:41.952Z,60.37
2022-10-17T09:14:27.501Z,61.19
2022-10-17T09:17:05.493Z,59.86
2022-10-17T09:19:36.893Z,57.04
2022-10-17T09:22:10.395Z,57.20
2022-10-17T09:24:44.324Z,58.66
2022-10-17T09:27:24.157Z,55.67
2022-10-17T09:29:56.329Z,59.04
2022-10-17T09:32:26.953Z,57.54
2022-10-17T09:34:57.352Z,54.77
2022-10-17T09:37:34.110Z,56.59
2022-10-17T09:40:02.387Z,53.47
2022-10-17T09:42:31.860Z,51.90
2022-10-17T09:45:15.466Z,56.67
2022-10-17T09:50:29.627Z,52.42
2022-10-17T09:53:01.791Z,54.47
2022-10-17T09:55:38.834Z,55.65
2022-10-17T09:58:09.057Z,53.84
2022-10-17T10:00:41.228Z,52.61
2022-10-17T10:03:16.978Z,56.49
2022-10-17T10:06:00.483Z,51.99
2022-10-17T10:08:31.246Z,52.28
2022-10-17T10:11:03.507Z,53.35
2022-10-17T10:13:32.613Z,50.47
2022-10-17T10:16:21.057Z,53.01
2022-10-17T10:18:51.166Z,50.07
2022-10-17T10:21:22.024Z,50.74
2022-10-17T10:24:07.219Z,51.20
2022-10-17T10:26:39.698Z,53.39
2022-10-17T10:29:22.580Z,54.08
2022-10-17T10:31:54.464Z,50.23
2022-10-17T10:34:25.946Z,50.94
2022-10-17T10:36:58.463Z,49.83
2022-10-17T10:39:35.936Z,47.19
2022-10-17T10:42:07.189Z,46.77
2022-10-17T10:44:37.361Z,47.08
2022-10-17T10:47:17.738Z,44.11
2022-10-17T10:49:46.315Z,46.94
2022-10-17T10:52:23.640Z,49.21
2022-10-17T10:55:00.383Z,49.92
2022-10-17T10:57:32.078Z,48.19
2022-10-17T11:00:07.518Z,47.21
2022-10-17T11:02:46.187Z,47.67
2022-10-17T11:05:19.388Z,50.83
2022-10-17T11:07:56.156Z,48.88
2022-10-17T11:10:31.599Z,47.85
2022-10-17T11:13:01.565Z,47.23
2022-10-17T11:15:36.653Z,45.40
2022-10-17T11:18:08.764Z,46.42
2022-10-17T11:20:51.663Z,45.48
2022-10-17T11:23:25.910Z,43.53
2022-10-17T11:25:55.758Z,42.95
2022-10-17T11:28:25.819Z,46.88
2022-10-17T11:30:58.981Z,43.22
2022-10-17T11:33:31.723Z,40.93
2022-10-17T11:36:05.289Z,41.94
2022-10-17T11:38:41.845Z,41.85
2022-10-17T11:41:17.368Z,40.32
2022-10-17T11:43:49.741Z,41.40
2022-10-17T11:46:23.857Z,43.22
2022-10-17T11:49:15.050Z,46.25
2022-10-17T11:52:00.890Z,44.78
2022-10-17T11:54:35.152Z,42.03
2022-10-17T11:57:16.689Z,42.17
2022-10-17T12:00:00.039Z,42.03
2022-10-17T12:02:39.182Z,43.05
2022-10-17T12:05:20.154Z,44.09
2022-10-17T12:07:54.218Z,42.85
2022-10-17T12:10:31.948Z,42.55
2022-10-17T12:13:41.739Z,42.88
2022-10-17T12:16:49.567Z,42.19
2022-10-17T12:19:38.854Z,41.85
2022-10-17T12:22:21.161Z,43.22
2022-10-17T12:24:58.659Z,41.21
2022-10-17T12:27:43.516Z,44.98
2022-10-17T12:30:23.835Z,43.04
2022-10-17T12:33:08.039Z,44.13
2022-10-17T12:35:38.374Z,43.09
2022-10-17T12:38:22.377Z,46.40
2022-10-17T12:41:05.223Z,44.37
2022-10-17T12:43:57.406Z,45.45
2022-10-17T12:46:48.050Z,46.51
2022-10-17T12:49:51.112Z,44.71
2022-10-17T12:52:24.405Z,44.62
2022-10-17T12:55:11.521Z,45.69
2022-10-17T12:57:45.712Z,44.34
2022-10-17T13:00:21.160Z,44.10
2022-10-17T13:02:49.576Z,43.58
2022-10-17T13:05:22.665Z,44.55
2022-10-17T13:07:56.485Z,44.04
2022-10-17T13:13:03.834Z,46.98
2022-10-17T13:15:32.329Z,47.53
2022-10-17T13:18:02.499Z,45.72
2022-10-17T13:20:32.566Z,47.53
2022-10-17T13:23:01.155Z,43.51
2022-10-17T13:25:30.877Z,46.49
2022-10-17T13:28:12.139Z,47.84
2022-10-17T13:30:40.298Z,46.12
2022-10-17T13:33:28.292Z,44.31
2022-10-17T13:36:00.422Z,47.00
2022-10-17T13:38:32.365Z,47.56
2022-10-17T13:41:30.178Z,48.09
2022-10-17T13:43:52.208Z,47.48
2022-10-17T13:46:37.313Z,47.69
2022-10-17T13:49:19.215Z,47.78
2022-10-17T13:51:49.776Z,45.69
2022-10-17T13:54:35.481Z,44.78
2022-10-17T13:57:08.658Z,45.14
2022-10-17T13:59:41.102Z,46.83
2022-10-17T14:02:16.574Z,48.69
2022-10-17T14:05:14.999Z,49.60
2022-10-17T14:08:05.624Z,48.21
2022-10-17T14:10:31.826Z,46.86
2022-10-17T14:13:02.100Z,49.47
2022-10-17T14:15:32.250Z,49.66
2022-10-17T14:18:06.723Z,46.78
2022-10-17T14:23:36.652Z,48.15
2022-10-17T14:26:12.870Z,49.86
2022-10-17T14:28:44.537Z,47.90
2022-10-17T14:31:31.257Z,49.61
2022-10-17T14:34:01.044Z,50.05
2022-10-17T14:36:38.816Z,50.86
2022-10-17T14:39:14.086Z,48.83
2022-10-17T14:41:46.594Z,50.84
2022-10-17T14:44:23.986Z,49.55
2022-10-17T14:46:55.752Z,51.59
2022-10-17T14:49:29.279Z,51.84
2022-10-17T14:52:24.889Z,51.96
2022-10-17T14:54:53.166Z,51.71
2022-10-17T14:57:25.048Z,50.66
2022-10-17T14:59:59.111Z,51.95
2022-10-17T15:02:29.399Z,51.80
2022-10-17T15:04:57.887Z,52.79
2022-10-17T15:07:26.431Z,53.83
2022-10-17T15:09:54.878Z,53.30
2022-10-17T15:12:25.890Z,54.48
2022-10-17T15:14:56.405Z,52.79
2022-10-17T15:17:29.761Z,54.38
2022-10-17T15:19:58.945Z,55.01
2022-10-17T15:22:27.888Z,55.40
2022-10-17T15:24:58.118Z,55.32
2022-10-17T15:27:27.813Z,55.96
2022-10-17T15:29:56.071Z,54.48
2022-10-17T15:32:24.083Z,54.88
2022-10-17T15:34:53.650Z,54.77
2022-10-17T15:37:23.092Z,54.82
2022-10-17T15:39:54.627Z,55.06
2022-10-17T15:42:24.005Z,54.69
2022-10-17T15:44:52.089Z,54.91
2022-10-17T15:47:25.510Z,54.60
2022-10-17T15:49:55.516Z,53.86
2022-10-17T15:52:24.053Z,53.58
2022-10-17T15:54:52.628Z,53.13
2022-10-17T15:57:23.890Z,52.97
2022-10-17T15:59:52.774Z,52.76
2022-10-17T16:02:22.681Z,52.52
2022-10-17T16:04:52.128Z,53.35
2022-10-17T16:07:22.054Z,54.04
2022-10-17T16:09:50.059Z,56.47
2022-10-17T16:12:20.019Z,57.42
2022-10-17T16:14:48.772Z,58.04
2022-10-17T16:17:18.487Z,57.67
2022-10-17T16:19:48.696Z,59.48
2022-10-17T16:22:28.811Z,60.79
2022-10-17T16:24:59.396Z,62.11
2022-10-17T16:27:27.757Z,64.44
2022-10-17T16:29:55.717Z,65.88
2022-10-17T16:32:23.815Z,66.86
2022-10-17T16:34:51.923Z,66.95
2022-10-17T16:37:21.365Z,67.34
2022-10-17T16:39:52.675Z,67.82
2022-10-17T16:42:21.286Z,67.51
2022-10-17T16:44:49.956Z,67.97
2022-10-17T16:47:19.230Z,67.84
2022-10-17T16:49:47.507Z,70.68
2022-10-17T16:52:15.558Z,69.73
2022-10-17T16:54:45.006Z,68.44
2022-10-17T16:57:13.085Z,67.62
2022-10-17T16:59:41.919Z,70.84
2022-10-17T17:02:12.093Z,72.02
2022-10-17T17:04:40.652Z,73.08
2022-10-17T17:07:08.843Z,72.08
2022-10-17T17:09:36.985Z,71.99
2022-10-17T17:12:07.031Z,72.04
2022-10-17T17:14:35.140Z,70.73
2022-10-17T17:17:03.286Z,71.09
2022-10-17T17:19:31.498Z,71.56
2022-10-17T17:21:59.592Z,71.40
2022-10-17T17:24:28.305Z,72.32
2022-10-17T17:26:57.567Z,72.27
2022-10-17T17:29:27.609Z,72.63
2022-10-17T17:31:55.764Z,72.44
2022-10-17T17:34:23.955Z,72.43
2022-10-17T17:36:52.020Z,72.29
2022-10-17T17:39:20.193Z,72.76
2022-10-17T17:41:48.318Z,73.26
2022-10-17T17:44:17.287Z,73.99
2022-10-17T17:46:48.017Z,72.49
2022-10-17T17:49:16.029Z,74.95
2022-10-17T17:51:46.656Z,74.97
2022-10-17T17:54:15.605Z,75.90
2022-10-17T17:56:43.871Z,75.78
2022-10-17T17:59:14.487Z,76.05
2022-10-17T18:01:42.730Z,76.36
2022-10-17T18:04:12.952Z,75.37
2022-10-17T18:06:41.355Z,75.31
2022-10-17T18:09:10.680Z,74.73
2022-10-17T18:11:39.520Z,75.24
2022-10-17T18:14:11.517Z,76.50
2022-10-17T18:16:39.837Z,75.60
2022-10-17T18:19:09.759Z,77.62
2022-10-17T18:21:39.531Z,78.35
2022-10-17T18:24:08.351Z,78.44
2022-10-17T18:26:37.060Z,77.86
2022-10-17T18:29:05.617Z,77.34
2022-10-17T18:31:35.961Z,77.31
2022-10-17T18:34:05.601Z,75.81
2022-10-17T18:36:35.335Z,76.31
2022-10-17T18:39:06.038Z,75.67
2022-10-17T18:41:34.851Z,74.86
2022-10-17T18:44:04.056Z,76.41
2022-10-17T18:46:42.700Z,75.41
2022-10-17T18:49:12.094Z,75.48
2022-10-17T18:51:42.224Z,77.44
2022-10-17T18:54:20.307Z,78.01
2022-10-17T18:56:50.453Z,76.55
2022-10-17T18:59:21.494Z,76.87
2022-10-17T19:01:49.870Z,76.20
2022-10-17T19:04:22.308Z,77.24
2022-10-17T19:06:50.471Z,79.23
2022-10-17T19:09:20.136Z,76.41
2022-10-17T19:11:48.349Z,80.11
2022-10-17T19:14:16.889Z,80.07
2022-10-17T19:16:47.649Z,78.61
2022-10-17T19:19:17.590Z,80.34
2022-10-17T19:21:46.049Z,79.72
2022-10-17T19:24:15.762Z,79.50
2022-10-17T19:26:46.768Z,79.88
2022-10-17T19:29:16.605Z,79.65
2022-10-17T19:31:45.635Z,79.81
2022-10-17T19:34:15.280Z,78.72
2022-10-17T19:36:44.273Z,78.39
2022-10-17T19:39:14.657Z,79.12
2022-10-17T19:41:44.254Z,78.00
2022-10-17T19:44:14.766Z,76.52
2022-10-17T19:46:44.496Z,75.92
2022-10-17T19:49:13.400Z,78.67
2022-10-17T19:51:41.902Z,77.78
2022-10-17T19:54:11.426Z,78.90
2022-10-17T19:56:40.465Z,79.70
2022-10-17T19:59:09.190Z,78.76
2022-10-17T20:01:40.140Z,79.67
2022-10-17T20:04:10.840Z,79.85
2022-10-17T20:06:40.777Z,79.70
2022-10-17T20:09:12.372Z,79.73
2022-10-17T20:11:46.381Z,77.64
2022-10-17T20:14:15.045Z,76.81
2022-10-17T20:16:50.676Z,78.16
2022-10-17T20:19:18.879Z,80.45
2022-10-17T20:21:46.872Z,79.58
2022-10-17T20:24:17.282Z,79.61
2022-10-17T20:26:45.869Z,79.36
2022-10-17T20:29:16.655Z,80.82
2022-10-17T20:31:47.106Z,82.19
2022-10-17T20:34:18.286Z,81.65
2022-10-17T20:36:47.026Z,80.90
2022-10-17T20:39:18.204Z,78.19
2022-10-17T20:41:48.535Z,77.88
2022-10-17T20:44:17.105Z,78.25
2022-10-17T20:47:00.798Z,78.30
2022-10-17T20:49:30.910Z,81.42
2022-10-17T20:52:03.346Z,81.71
2022-10-17T20:54:31.607Z,79.27
2022-10-17T20:57:03.917Z,80.40
2022-10-17T20:59:34.999Z,78.96
2022-10-17T21:02:06.728Z,78.89
2022-10-17T21:04:50.712Z,78.80
2022-10-17T21:07:19.259Z,80.48
2022-10-17T21:09:47.428Z,84.05
2022-10-17T21:12:25.802Z,81.54
2022-10-17T21:15:05.068Z,80.39
2022-10-17T21:17:35.171Z,80.46
2022-10-17T21:20:03.251Z,81.26
2022-10-17T21:22:32.221Z,81.90
2022-10-17T21:25:01.334Z,81.37
2022-10-17T21:27:30.255Z,78.96
2022-10-17T21:29:58.588Z,81.40
2022-10-17T21:32:47.281Z,82.96
2022-10-17T21:35:16.568Z,83.05
2022-10-17T21:37:44.593Z,82.42
2022-10-17T21:40:13.900Z,83.86
2022-10-17T21:42:41.917Z,82.49
2022-10-17T21:45:15.570Z,82.82
2022-10-17T21:48:11.322Z,82.06
2022-10-17T21:50:39.610Z,83.10
2022-10-17T21:53:07.638Z,83.33
2022-10-17T21:55:37.211Z,81.89
2022-10-17T21:58:05.608Z,81.36
2022-10-17T22:00:33.661Z,81.80
2022-10-17T22:03:02.145Z,81.87
2022-10-17T22:05:31.999Z,83.52
2022-10-17T22:08:01.695Z,82.62
2022-10-17T22:10:29.680Z,82.66
2022-10-17T22:12:57.672Z,82.43
2022-10-17T22:15:25.704Z,82.58
2022-10-17T22:17:53.780Z,84.31
2022-10-17T22:20:21.874Z,83.31
2022-10-17T22:22:49.936Z,82.91
2022-10-17T22:25:19.364Z,82.45
2022-10-17T22:27:48.353Z,83.19
2022-10-17T22:30:16.613Z,82.48
2022-10-17T22:32:44.647Z,82.28
2022-10-17T22:35:12.625Z,82.41
2022-10-17T22:37:40.647Z,82.44
2022-10-17T22:40:09.462Z,82.15
2022-10-17T22:42:38.826Z,84.95
2022-10-17T22:45:07.414Z,83.69
2022-10-17T22:47:35.394Z,83.61
2022-10-17T22:50:03.693Z,82.72
2022-10-17T22:52:31.935Z,81.93
2022-10-17T22:55:00.042Z,81.66
2022-10-17T22:57:28.034Z,81.82
2022-10-17T22:59:57.567Z,82.08
2022-10-17T23:02:25.663Z,82.40
2022-10-17T23:04:53.672Z,82.59
2022-10-17T23:07:21.699Z,82.20
2022-10-17T23:09:49.725Z,82.11
2022-10-17T23:12:17.803Z,81.71
2022-10-17T23:14:45.928Z,82.28
2022-10-17T23:17:17.552Z,83.60
2022-10-17T23:19:45.528Z,84.04
2022-10-17T23:22:13.568Z,84.95
2022-10-17T23:24:41.651Z,84.97
2022-10-17T23:27:09.634Z,84.64
2022-10-17T23:29:37.616Z,85.45
2022-10-17T23:32:06.028Z,84.00
2022-10-17T23:34:35.373Z,84.05
2022-10-17T23:37:03.322Z,84.99
2022-10-17T23:39:31.342Z,84.39
2022-10-17T23:41:59.358Z,85.33
2022-10-17T23:44:27.424Z,84.26
2022-10-17T23:46:55.693Z,83.84
2022-10-17T23:49:23.669Z,83.39
2022-10-17T23:51:53.003Z,83.19
2022-10-17T23:54:21.314Z,82.82
2022-10-17T23:56:49.274Z,84.14
2022-10-17T23:59:17.442Z,84.52
